sensor_id;sensor_type;location;lat;lon;timestamp;pressure;altitude;pressure_sealevel;temperature;humidity
36630;BME280;36256;42.154;23.002;2023-02-12T00:01:23;98289.16;;;-2.50;78.63
36630;BME280;36256;42.154;23.002;2023-02-12T00:03:50;98285.38;;;-2.46;78.18
36630;BME280;36256;42.154;23.002;2023-02-12T00:06:16;98287.44;;;-2.55;78.67
36630;BME280;36256;42.154;23.002;2023-02-12T00:08:43;98282.38;;;-2.41;77.95
36630;BME280;36256;42.154;23.002;2023-02-12T00:11:15;98286.50;;;-2.34;77.26
36630;BME280;36256;42.154;23.002;2023-02-12T00:13:42;98277.47;;;-2.47;77.61
36630;BME280;36256;42.154;23.002;2023-02-12T00:16:10;98281.81;;;-2.46;78.83
36630;BME280;36256;42.154;23.002;2023-02-12T00:18:37;98282.66;;;-2.58;80.63
36630;BME280;36256;42.154;23.002;2023-02-12T00:21:05;98282.97;;;-2.71;83.01
36630;BME280;36256;42.154;23.002;2023-02-12T00:23:34;98281.50;;;-2.69;82.83
36630;BME280;36256;42.154;23.002;2023-02-12T00:26:11;98278.63;;;-2.60;81.82
36630;BME280;36256;42.154;23.002;2023-02-12T00:28:37;98268.78;;;-2.73;80.51
36630;BME280;36256;42.154;23.002;2023-02-12T00:31:06;98282.75;;;-2.54;80.41
36630;BME280;36256;42.154;23.002;2023-02-12T00:33:33;98286.19;;;-2.45;80.52
36630;BME280;36256;42.154;23.002;2023-02-12T00:36:00;98289.38;;;-2.43;81.33
36630;BME280;36256;42.154;23.002;2023-02-12T00:38:26;98286.84;;;-2.36;80.55
36630;BME280;36256;42.154;23.002;2023-02-12T00:40:53;98264.19;;;-2.45;78.58
36630;BME280;36256;42.154;23.002;2023-02-12T00:43:20;98288.44;;;-2.23;77.86
36630;BME280;36256;42.154;23.002;2023-02-12T00:45:46;98289.09;;;-2.26;76.42
36630;BME280;36256;42.154;23.002;2023-02-12T00:48:13;98284.53;;;-2.22;75.63
36630;BME280;36256;42.154;23.002;2023-02-12T00:50:43;98302.06;;;-2.39;77.18
36630;BME280;36256;42.154;23.002;2023-02-12T00:53:10;98289.59;;;-2.36;76.99
36630;BME280;36256;42.154;23.002;2023-02-12T00:55:37;98269.00;;;-2.42;77.40
36630;BME280;36256;42.154;23.002;2023-02-12T00:58:04;98295.09;;;-2.36;76.69
36630;BME280;36256;42.154;23.002;2023-02-12T01:00:31;98267.28;;;-2.47;78.82
36630;BME280;36256;42.154;23.002;2023-02-12T01:02:58;98285.22;;;-2.25;78.63
36630;BME280;36256;42.154;23.002;2023-02-12T01:05:24;98273.56;;;-2.46;80.22
36630;BME280;36256;42.154;23.002;2023-02-12T01:07:52;98279.75;;;-2.37;80.53
36630;BME280;36256;42.154;23.002;2023-02-12T01:10:19;98273.09;;;-2.36;79.44
36630;BME280;36256;42.154;23.002;2023-02-12T01:12:47;98275.97;;;-2.45;79.78
36630;BME280;36256;42.154;23.002;2023-02-12T01:15:14;98246.69;;;-2.53;79.91
36630;BME280;36256;42.154;23.002;2023-02-12T01:17:42;98238.56;;;-2.61;80.25
36630;BME280;36256;42.154;23.002;2023-02-12T01:20:13;98261.69;;;-2.50;80.37
36630;BME280;36256;42.154;23.002;2023-02-12T01:22:39;98255.94;;;-2.57;80.10
36630;BME280;36256;42.154;23.002;2023-02-12T01:25:06;98251.41;;;-2.77;81.80
36630;BME280;36256;42.154;23.002;2023-02-12T01:27:35;98267.28;;;-2.95;82.18
36630;BME280;36256;42.154;23.002;2023-02-12T01:30:02;98243.38;;;-2.94;82.43
36630;BME280;36256;42.154;23.002;2023-02-12T01:32:29;98231.25;;;-3.05;83.60
36630;BME280;36256;42.154;23.002;2023-02-12T01:34:56;98243.59;;;-2.99;83.85
36630;BME280;36256;42.154;23.002;2023-02-12T01:37:23;98233.53;;;-2.95;81.45
36630;BME280;36256;42.154;23.002;2023-02-12T01:39:49;98227.03;;;-2.91;80.42
36630;BME280;36256;42.154;23.002;2023-02-12T01:42:16;98221.78;;;-2.96;79.80
36630;BME280;36256;42.154;23.002;2023-02-12T01:45:28;98220.16;;;-2.97;80.63
36630;BME280;36256;42.154;23.002;2023-02-12T01:47:32;98228.50;;;-3.05;82.78
36630;BME280;36256;42.154;23.002;2023-02-12T01:49:59;98222.22;;;-3.18;83.20
36630;BME280;36256;42.154;23.002;2023-02-12T01:52:28;98224.84;;;-3.09;82.94
36630;BME280;36256;42.154;23.002;2023-02-12T01:54:57;98207.66;;;-3.43;83.46
36630;BME280;36256;42.154;23.002;2023-02-12T01:57:27;98229.25;;;-3.53;85.25
36630;BME280;36256;42.154;23.002;2023-02-12T01:59:57;98228.66;;;-3.59;86.82
36630;BME280;36256;42.154;23.002;2023-02-12T02:02:24;98239.13;;;-3.73;89.26
36630;BME280;36256;42.154;23.002;2023-02-12T02:04:55;98231.84;;;-3.69;89.70
36630;BME280;36256;42.154;23.002;2023-02-12T02:07:23;98218.84;;;-3.60;89.64
36630;BME280;36256;42.154;23.002;2023-02-12T02:09:50;98224.56;;;-3.53;89.21
36630;BME280;36256;42.154;23.002;2023-02-12T02:12:18;98220.22;;;-3.42;87.71
36630;BME280;36256;42.154;23.002;2023-02-12T02:15:05;98223.78;;;-3.29;86.80
36630;BME280;36256;42.154;23.002;2023-02-12T02:23:08;98233.53;;;-3.32;86.52
36630;BME280;36256;42.154;23.002;2023-02-12T02:31:19;98221.03;;;-3.53;88.61
36630;BME280;36256;42.154;23.002;2023-02-12T02:34:58;98223.22;;;-3.47;88.19
36630;BME280;36256;42.154;23.002;2023-02-12T02:37:13;98222.97;;;-3.42;86.97
36630;BME280;36256;42.154;23.002;2023-02-12T02:39:54;98218.66;;;-3.43;86.81
36630;BME280;36256;42.154;23.002;2023-02-12T02:42:54;98219.91;;;-3.40;86.54
36630;BME280;36256;42.154;23.002;2023-02-12T02:45:33;98211.59;;;-3.32;84.98
36630;BME280;36256;42.154;23.002;2023-02-12T02:48:26;98207.22;;;-3.33;84.70
36630;BME280;36256;42.154;23.002;2023-02-12T02:50:59;98200.59;;;-3.32;83.95
36630;BME280;36256;42.154;23.002;2023-02-12T02:53:51;98205.84;;;-3.27;83.40
36630;BME280;36256;42.154;23.002;2023-02-12T02:56:22;98207.91;;;-3.24;82.94
36630;BME280;36256;42.154;23.002;2023-02-12T02:59:03;98203.56;;;-3.25;82.21
36630;BME280;36256;42.154;23.002;2023-02-12T03:01:41;98210.66;;;-3.24;81.89
36630;BME280;36256;42.154;23.002;2023-02-12T03:04:31;98202.88;;;-3.22;81.48
36630;BME280;36256;42.154;23.002;2023-02-12T03:07:11;98205.19;;;-3.24;82.89
36630;BME280;36256;42.154;23.002;2023-02-12T03:09:44;98185.03;;;-3.40;83.58
36630;BME280;36256;42.154;23.002;2023-02-12T03:12:16;98215.34;;;-3.24;84.01
36630;BME280;36256;42.154;23.002;2023-02-12T03:14:51;98206.75;;;-3.23;82.79
36630;BME280;36256;42.154;23.002;2023-02-12T03:17:24;98198.88;;;-3.24;82.79
36630;BME280;36256;42.154;23.002;2023-02-12T03:19:57;98186.88;;;-3.20;82.40
36630;BME280;36256;42.154;23.002;2023-02-12T03:22:32;98194.19;;;-3.24;81.15
36630;BME280;36256;42.154;23.002;2023-02-12T03:31:18;98193.16;;;-3.31;86.63
36630;BME280;36256;42.154;23.002;2023-02-12T03:39:13;98186.63;;;-3.39;84.32
36630;BME280;36256;42.154;23.002;2023-02-12T03:41:49;98188.31;;;-3.46;84.13
36630;BME280;36256;42.154;23.002;2023-02-12T03:44:32;98188.88;;;-3.65;87.41
36630;BME280;36256;42.154;23.002;2023-02-12T03:47:24;98190.22;;;-3.71;89.32
36630;BME280;36256;42.154;23.002;2023-02-12T03:52:25;98192.69;;;-3.90;91.64
36630;BME280;36256;42.154;23.002;2023-02-12T03:54:52;98189.06;;;-3.82;91.73
36630;BME280;36256;42.154;23.002;2023-02-12T03:57:21;98186.56;;;-3.75;90.28
36630;BME280;36256;42.154;23.002;2023-02-12T03:59:48;98190.81;;;-3.65;89.77
36630;BME280;36256;42.154;23.002;2023-02-12T04:02:17;98179.53;;;-3.64;89.70
36630;BME280;36256;42.154;23.002;2023-02-12T04:04:45;98172.31;;;-3.44;88.94
36630;BME280;36256;42.154;23.002;2023-02-12T04:07:12;98152.34;;;-3.33;85.03
36630;BME280;36256;42.154;23.002;2023-02-12T04:09:40;98154.03;;;-3.04;83.63
36630;BME280;36256;42.154;23.002;2023-02-12T04:12:08;98154.94;;;-2.88;84.17
36630;BME280;36256;42.154;23.002;2023-02-12T04:14:54;98157.97;;;-2.65;79.93
36630;BME280;36256;42.154;23.002;2023-02-12T04:17:45;98153.47;;;-2.46;78.57
36630;BME280;36256;42.154;23.002;2023-02-12T04:23:22;98153.34;;;-2.09;76.01
36630;BME280;36256;42.154;23.002;2023-02-12T04:34:34;98153.78;;;-1.48;72.76
36630;BME280;36256;42.154;23.002;2023-02-12T04:37:04;98149.84;;;-1.47;70.63
36630;BME280;36256;42.154;23.002;2023-02-12T04:39:36;98149.34;;;-1.37;70.41
36630;BME280;36256;42.154;23.002;2023-02-12T04:42:03;98140.81;;;-1.32;70.00
36630;BME280;36256;42.154;23.002;2023-02-12T04:44:31;98135.91;;;-1.23;69.14
36630;BME280;36256;42.154;23.002;2023-02-12T04:46:59;98140.38;;;-1.19;68.13
36630;BME280;36256;42.154;23.002;2023-02-12T04:49:26;98145.25;;;-1.12;67.50
36630;BME280;36256;42.154;23.002;2023-02-12T04:51:53;98123.47;;;-1.17;68.19
36630;BME280;36256;42.154;23.002;2023-02-12T04:54:20;98136.59;;;-0.95;65.79
36630;BME280;36256;42.154;23.002;2023-02-12T04:56:48;98144.56;;;-0.90;69.17
36630;BME280;36256;42.154;23.002;2023-02-12T04:59:15;98144.94;;;-0.92;67.55
36630;BME280;36256;42.154;23.002;2023-02-12T05:01:43;98152.63;;;-1.32;72.75
36630;BME280;36256;42.154;23.002;2023-02-12T05:04:13;98163.88;;;-1.68;77.18
36630;BME280;36256;42.154;23.002;2023-02-12T05:06:41;98178.16;;;-2.06;80.40
36630;BME280;36256;42.154;23.002;2023-02-12T05:09:09;98183.97;;;-2.23;82.80
36630;BME280;36256;42.154;23.002;2023-02-12T05:11:38;98175.84;;;-2.31;83.92
36630;BME280;36256;42.154;23.002;2023-02-12T05:14:05;98193.06;;;-2.34;84.94
36630;BME280;36256;42.154;23.002;2023-02-12T05:16:31;98186.75;;;-2.35;85.73
36630;BME280;36256;42.154;23.002;2023-02-12T05:18:58;98183.56;;;-2.37;85.91
36630;BME280;36256;42.154;23.002;2023-02-12T05:21:25;98191.91;;;-2.33;87.25
36630;BME280;36256;42.154;23.002;2023-02-12T05:23:51;98189.00;;;-2.25;87.76
36630;BME280;36256;42.154;23.002;2023-02-12T05:26:20;98186.66;;;-2.11;87.26
36630;BME280;36256;42.154;23.002;2023-02-12T05:28:47;98183.88;;;-1.99;81.73
36630;BME280;36256;42.154;23.002;2023-02-12T05:31:16;98169.53;;;-1.77;76.51
36630;BME280;36256;42.154;23.002;2023-02-12T05:33:47;98161.56;;;-1.66;74.41
36630;BME280;36256;42.154;23.002;2023-02-12T05:36:17;98174.00;;;-1.41;72.18
36630;BME280;36256;42.154;23.002;2023-02-12T05:38:44;98163.72;;;-1.28;71.51
36630;BME280;36256;42.154;23.002;2023-02-12T05:41:17;98166.41;;;-1.16;70.56
36630;BME280;36256;42.154;23.002;2023-02-12T05:43:45;98165.09;;;-1.03;68.36
36630;BME280;36256;42.154;23.002;2023-02-12T05:46:16;98171.25;;;-0.94;68.90
36630;BME280;36256;42.154;23.002;2023-02-12T05:48:43;98168.66;;;-0.87;68.89
36630;BME280;36256;42.154;23.002;2023-02-12T05:51:19;98176.63;;;-0.82;67.35
36630;BME280;36256;42.154;23.002;2023-02-12T05:53:48;98182.06;;;-0.70;67.10
36630;BME280;36256;42.154;23.002;2023-02-12T05:56:18;98190.38;;;-0.51;68.96
36630;BME280;36256;42.154;23.002;2023-02-12T05:58:50;98155.88;;;-0.60;64.98
36630;BME280;36256;42.154;23.002;2023-02-12T06:01:26;98175.84;;;-0.48;64.10
36630;BME280;36256;42.154;23.002;2023-02-12T06:03:54;98184.47;;;-0.49;63.95
36630;BME280;36256;42.154;23.002;2023-02-12T06:06:21;98173.09;;;-0.48;63.86
36630;BME280;36256;42.154;23.002;2023-02-12T06:08:48;98187.91;;;-0.37;63.50
36630;BME280;36256;42.154;23.002;2023-02-12T06:11:15;98176.13;;;-0.34;62.95
36630;BME280;36256;42.154;23.002;2023-02-12T06:13:43;98198.53;;;-0.20;62.89
36630;BME280;36256;42.154;23.002;2023-02-12T06:16:38;98195.41;;;-0.18;61.91
36630;BME280;36256;42.154;23.002;2023-02-12T06:19:06;98195.47;;;-0.15;61.98
36630;BME280;36256;42.154;23.002;2023-02-12T06:21:33;98180.38;;;-0.21;61.99
36630;BME280;36256;42.154;23.002;2023-02-12T06:23:59;98204.41;;;-0.02;61.67
36630;BME280;36256;42.154;23.002;2023-02-12T06:26:26;98192.44;;;-0.10;62.45
36630;BME280;36256;42.154;23.002;2023-02-12T06:28:53;98194.97;;;-0.01;62.63
36630;BME280;36256;42.154;23.002;2023-02-12T06:31:23;98208.56;;;0.08;62.72
36630;BME280;36256;42.154;23.002;2023-02-12T06:33:52;98214.22;;;0.15;63.76
36630;BME280;36256;42.154;23.002;2023-02-12T06:36:19;98224.66;;;0.25;63.09
36630;BME280;36256;42.154;23.002;2023-02-12T06:38:46;98233.66;;;0.41;62.24
36630;BME280;36256;42.154;23.002;2023-02-12T06:41:13;98229.75;;;0.42;62.26
36630;BME280;36256;42.154;23.002;2023-02-12T06:43:40;98237.66;;;0.43;61.77
36630;BME280;36256;42.154;23.002;2023-02-12T06:46:07;98243.97;;;0.44;61.23
36630;BME280;36256;42.154;23.002;2023-02-12T06:48:34;98240.41;;;0.43;61.64
36630;BME280;36256;42.154;23.002;2023-02-12T06:51:12;98235.31;;;0.45;62.74
36630;BME280;36256;42.154;23.002;2023-02-12T06:53:39;98237.84;;;0.54;62.63
36630;BME280;36256;42.154;23.002;2023-02-12T06:56:07;98241.78;;;0.53;63.22
36630;BME280;36256;42.154;23.002;2023-02-12T06:58:46;98245.09;;;0.62;63.70
36630;BME280;36256;42.154;23.002;2023-02-12T07:01:19;98244.06;;;0.70;66.34
36630;BME280;36256;42.154;23.002;2023-02-12T07:03:49;98241.59;;;0.84;65.92
36630;BME280;36256;42.154;23.002;2023-02-12T07:06:17;98237.03;;;0.95;67.22
36630;BME280;36256;42.154;23.002;2023-02-12T07:08:44;98247.78;;;1.00;70.09
36630;BME280;36256;42.154;23.002;2023-02-12T07:11:11;98250.06;;;1.17;70.21
36630;BME280;36256;42.154;23.002;2023-02-12T07:13:42;98256.19;;;1.30;72.39
36630;BME280;36256;42.154;23.002;2023-02-12T07:16:13;98256.84;;;1.46;72.24
36630;BME280;36256;42.154;23.002;2023-02-12T07:18:41;98262.53;;;1.56;72.51
36630;BME280;36256;42.154;23.002;2023-02-12T07:21:09;98269.03;;;1.68;73.08
36630;BME280;36256;42.154;23.002;2023-02-12T07:23:37;98248.09;;;1.67;73.47
36630;BME280;36256;42.154;23.002;2023-02-12T07:26:05;98256.59;;;1.81;75.30
36630;BME280;36256;42.154;23.002;2023-02-12T07:28:32;98252.63;;;1.82;76.49
36630;BME280;36256;42.154;23.002;2023-02-12T07:31:06;98262.25;;;1.88;79.87
36630;BME280;36256;42.154;23.002;2023-02-12T07:33:34;98259.97;;;1.97;82.43
36630;BME280;36256;42.154;23.002;2023-02-12T07:36:03;98264.88;;;2.07;80.35
36630;BME280;36256;42.154;23.002;2023-02-12T07:38:30;98254.66;;;2.11;80.76
36630;BME280;36256;42.154;23.002;2023-02-12T07:41:30;98259.09;;;2.19;76.52
36630;BME280;36256;42.154;23.002;2023-02-12T07:43:59;98245.53;;;2.40;75.24
36630;BME280;36256;42.154;23.002;2023-02-12T07:46:29;98252.41;;;2.53;73.74
36630;BME280;36256;42.154;23.002;2023-02-12T07:48:58;98240.00;;;2.44;74.42
36630;BME280;36256;42.154;23.002;2023-02-12T07:51:26;98242.28;;;2.34;73.69
36630;BME280;36256;42.154;23.002;2023-02-12T07:53:53;98245.34;;;2.26;75.40
36630;BME280;36256;42.154;23.002;2023-02-12T07:56:22;98243.88;;;2.35;75.84
36630;BME280;36256;42.154;23.002;2023-02-12T07:58:50;98255.81;;;2.43;75.13
36630;BME280;36256;42.154;23.002;2023-02-12T08:01:29;98244.72;;;2.39;73.54
36630;BME280;36256;42.154;23.002;2023-02-12T08:04:03;98246.19;;;2.30;72.01
36630;BME280;36256;42.154;23.002;2023-02-12T08:06:33;98246.25;;;2.37;72.92
36630;BME280;36256;42.154;23.002;2023-02-12T08:09:02;98234.41;;;2.36;72.45
36630;BME280;36256;42.154;23.002;2023-02-12T08:11:29;98220.38;;;2.22;72.79
36630;BME280;36256;42.154;23.002;2023-02-12T08:13:57;98220.84;;;2.28;73.31
36630;BME280;36256;42.154;23.002;2023-02-12T08:16:25;98226.97;;;2.44;73.07
36630;BME280;36256;42.154;23.002;2023-02-12T08:18:53;98233.03;;;2.53;72.98
36630;BME280;36256;42.154;23.002;2023-02-12T08:21:26;98230.28;;;2.57;72.82
36630;BME280;36256;42.154;23.002;2023-02-12T08:23:55;98232.19;;;2.49;72.71
36630;BME280;36256;42.154;23.002;2023-02-12T08:26:28;98222.78;;;2.57;72.12
36630;BME280;36256;42.154;23.002;2023-02-12T08:29:00;98230.66;;;2.55;73.36
36630;BME280;36256;42.154;23.002;2023-02-12T08:31:34;98222.00;;;2.60;72.15
36630;BME280;36256;42.154;23.002;2023-02-12T08:34:01;98232.34;;;2.63;72.49
36630;BME280;36256;42.154;23.002;2023-02-12T08:36:36;98246.59;;;2.65;72.64
36630;BME280;36256;42.154;23.002;2023-02-12T08:39:04;98237.09;;;2.66;72.31
36630;BME280;36256;42.154;23.002;2023-02-12T08:41:31;98248.25;;;2.70;71.96
36630;BME280;36256;42.154;23.002;2023-02-12T08:44:00;98249.41;;;2.69;72.04
36630;BME280;36256;42.154;23.002;2023-02-12T08:46:30;98258.56;;;2.73;72.14
36630;BME280;36256;42.154;23.002;2023-02-12T08:49:02;98261.72;;;2.71;72.42
36630;BME280;36256;42.154;23.002;2023-02-12T08:51:31;98256.91;;;2.68;71.39
36630;BME280;36256;42.154;23.002;2023-02-12T08:54:03;98257.69;;;2.65;70.82
36630;BME280;36256;42.154;23.002;2023-02-12T08:56:32;98249.69;;;2.60;70.94
36630;BME280;36256;42.154;23.002;2023-02-12T08:59:01;98252.97;;;2.69;70.84
36630;BME280;36256;42.154;23.002;2023-02-12T09:01:31;98268.91;;;2.79;70.50
36630;BME280;36256;42.154;23.002;2023-02-12T09:03:58;98266.56;;;2.81;70.54
36630;BME280;36256;42.154;23.002;2023-02-12T09:06:25;98271.25;;;2.74;71.63
36630;BME280;36256;42.154;23.002;2023-02-12T09:08:53;98280.00;;;2.79;70.96
36630;BME280;36256;42.154;23.002;2023-02-12T09:11:23;98280.81;;;2.80;70.80
36630;BME280;36256;42.154;23.002;2023-02-12T09:13:57;98282.44;;;2.84;72.24
36630;BME280;36256;42.154;23.002;2023-02-12T09:16:26;98288.09;;;2.91;72.17
36630;BME280;36256;42.154;23.002;2023-02-12T09:18:53;98288.41;;;2.86;72.32
36630;BME280;36256;42.154;23.002;2023-02-12T09:21:21;98292.75;;;2.87;73.25
36630;BME280;36256;42.154;23.002;2023-02-12T09:23:48;98296.28;;;2.81;73.85
36630;BME280;36256;42.154;23.002;2023-02-12T09:26:16;98287.91;;;2.77;74.35
36630;BME280;36256;42.154;23.002;2023-02-12T09:28:43;98287.09;;;2.77;74.50
36630;BME280;36256;42.154;23.002;2023-02-12T09:31:18;98285.53;;;2.76;74.78
36630;BME280;36256;42.154;23.002;2023-02-12T09:33:46;98292.00;;;2.87;73.91
36630;BME280;36256;42.154;23.002;2023-02-12T09:36:17;98297.53;;;2.87;75.40
36630;BME280;36256;42.154;23.002;2023-02-12T09:38:44;98303.13;;;2.94;74.93
36630;BME280;36256;42.154;23.002;2023-02-12T09:46:59;98307.72;;;3.12;74.15
36630;BME280;36256;42.154;23.002;2023-02-12T09:52:17;98306.66;;;3.28;72.99
36630;BME280;36256;42.154;23.002;2023-02-12T09:54:45;98299.09;;;3.25;74.64
36630;BME280;36256;42.154;23.002;2023-02-12T09:57:32;98289.31;;;3.38;73.84
36630;BME280;36256;42.154;23.002;2023-02-12T10:00:06;98289.38;;;3.45;74.81
36630;BME280;36256;42.154;23.002;2023-02-12T10:02:35;98284.31;;;3.54;73.57
36630;BME280;36256;42.154;23.002;2023-02-12T10:05:04;98257.75;;;3.56;74.32
36630;BME280;36256;42.154;23.002;2023-02-12T10:08:11;98284.00;;;3.66;74.37
36630;BME280;36256;42.154;23.002;2023-02-12T10:10:50;98283.22;;;3.65;72.75
36630;BME280;36256;42.154;23.002;2023-02-12T10:13:23;98277.75;;;3.76;72.03
36630;BME280;36256;42.154;23.002;2023-02-12T10:19:26;98281.94;;;4.10;70.90
36630;BME280;36256;42.154;23.002;2023-02-12T10:25:08;98284.34;;;4.15;70.72
36630;BME280;36256;42.154;23.002;2023-02-12T10:27:48;98290.66;;;4.12;70.07
36630;BME280;36256;42.154;23.002;2023-02-12T10:30:20;98297.00;;;4.09;69.72
36630;BME280;36256;42.154;23.002;2023-02-12T10:32:51;98296.88;;;3.91;71.20
36630;BME280;36256;42.154;23.002;2023-02-12T10:35:20;98292.94;;;3.96;70.41
36630;BME280;36256;42.154;23.002;2023-02-12T10:37:56;98297.63;;;3.85;70.89
36630;BME280;36256;42.154;23.002;2023-02-12T10:40:28;98292.13;;;3.92;70.76
36630;BME280;36256;42.154;23.002;2023-02-12T10:42:59;98288.97;;;3.97;70.07
36630;BME280;36256;42.154;23.002;2023-02-12T10:45:32;98300.13;;;4.04;69.45
36630;BME280;36256;42.154;23.002;2023-02-12T10:51:01;98293.00;;;4.03;70.28
36630;BME280;36256;42.154;23.002;2023-02-12T10:53:40;98284.69;;;4.03;70.18
36630;BME280;36256;42.154;23.002;2023-02-12T10:58:42;98283.06;;;4.02;70.15
36630;BME280;36256;42.154;23.002;2023-02-12T11:01:16;98300.97;;;4.08;70.60
36630;BME280;36256;42.154;23.002;2023-02-12T11:03:45;98301.75;;;4.05;71.08
36630;BME280;36256;42.154;23.002;2023-02-12T11:06:14;98306.56;;;4.12;70.84
36630;BME280;36256;42.154;23.002;2023-02-12T11:08:43;98304.53;;;4.09;70.63
36630;BME280;36256;42.154;23.002;2023-02-12T11:11:21;98288.97;;;3.97;72.15
36630;BME280;36256;42.154;23.002;2023-02-12T11:14:15;98305.63;;;3.93;73.29
36630;BME280;36256;42.154;23.002;2023-02-12T11:16:56;98298.50;;;3.92;73.67
36630;BME280;36256;42.154;23.002;2023-02-12T11:19:30;98296.53;;;4.00;73.97
36630;BME280;36256;42.154;23.002;2023-02-12T11:22:08;98287.47;;;4.07;73.66
36630;BME280;36256;42.154;23.002;2023-02-12T11:24:36;98279.47;;;3.94;73.79
36630;BME280;36256;42.154;23.002;2023-02-12T11:29:43;98269.84;;;3.81;74.04
36630;BME280;36256;42.154;23.002;2023-02-12T11:32:18;98276.31;;;3.99;73.74
36630;BME280;36256;42.154;23.002;2023-02-12T11:35:09;98282.25;;;3.98;74.54
36630;BME280;36256;42.154;23.002;2023-02-12T11:37:42;98286.25;;;4.08;73.29
36630;BME280;36256;42.154;23.002;2023-02-12T11:40:28;98273.66;;;4.17;74.04
36630;BME280;36256;42.154;23.002;2023-02-12T11:42:59;98270.13;;;4.27;72.85
36630;BME280;36256;42.154;23.002;2023-02-12T11:45:41;98247.19;;;4.44;72.55
36630;BME280;36256;42.154;23.002;2023-02-12T11:48:16;98276.28;;;4.71;71.88
36630;BME280;36256;42.154;23.002;2023-02-12T11:50:51;98239.78;;;4.87;70.24
36630;BME280;36256;42.154;23.002;2023-02-12T11:53:23;98241.81;;;5.04;70.50
36630;BME280;36256;42.154;23.002;2023-02-12T11:55:56;98238.63;;;5.06;69.62
36630;BME280;36256;42.154;23.002;2023-02-12T11:58:25;98236.22;;;4.94;69.32
36630;BME280;36256;42.154;23.002;2023-02-12T12:01:29;98238.59;;;4.99;69.41
36630;BME280;36256;42.154;23.002;2023-02-12T12:04:04;98244.94;;;4.89;69.58
36630;BME280;36256;42.154;23.002;2023-02-12T12:06:50;98221.88;;;4.77;70.21
36630;BME280;36256;42.154;23.002;2023-02-12T12:12:44;98230.63;;;4.87;69.85
36630;BME280;36256;42.154;23.002;2023-02-12T12:15:22;98207.56;;;4.75;70.26
36630;BME280;36256;42.154;23.002;2023-02-12T12:18:20;98225.88;;;4.84;69.44
36630;BME280;36256;42.154;23.002;2023-02-12T12:21:17;98232.63;;;4.79;70.19
36630;BME280;36256;42.154;23.002;2023-02-12T12:23:56;98216.72;;;4.87;70.72
36630;BME280;36256;42.154;23.002;2023-02-12T12:26:30;98205.22;;;4.99;69.34
36630;BME280;36256;42.154;23.002;2023-02-12T12:29:11;98183.00;;;5.06;68.73
36630;BME280;36256;42.154;23.002;2023-02-12T12:31:46;98205.66;;;5.57;68.34
36630;BME280;36256;42.154;23.002;2023-02-12T12:34:21;98192.09;;;5.87;66.58
36630;BME280;36256;42.154;23.002;2023-02-12T12:39:32;98201.97;;;6.16;64.37
36630;BME280;36256;42.154;23.002;2023-02-12T13:02:04;98249.00;;;5.65;65.14
36630;BME280;36256;42.154;23.002;2023-02-12T13:07:45;98255.34;;;5.76;64.55
36630;BME280;36256;42.154;23.002;2023-02-12T13:15:38;98241.06;;;5.53;66.54
36630;BME280;36256;42.154;23.002;2023-02-12T13:31:50;98248.19;;;5.89;66.64
36630;BME280;36256;42.154;23.002;2023-02-12T13:34:19;98247.41;;;5.89;66.87
36630;BME280;36256;42.154;23.002;2023-02-12T13:36:48;98229.09;;;5.77;66.62
36630;BME280;36256;42.154;23.002;2023-02-12T13:39:46;98245.81;;;5.84;66.23
36630;BME280;36256;42.154;23.002;2023-02-12T13:42:23;98256.16;;;5.84;66.90
36630;BME280;36256;42.154;23.002;2023-02-12T13:59:02;98263.16;;;6.59;63.04
36630;BME280;36256;42.154;23.002;2023-02-12T14:04:34;98264.78;;;6.42;62.43
36630;BME280;36256;42.154;23.002;2023-02-12T14:07:05;98277.22;;;6.13;64.11
36630;BME280;36256;42.154;23.002;2023-02-12T14:09:42;98276.06;;;5.93;64.57
36630;BME280;36256;42.154;23.002;2023-02-12T14:12:13;98291.97;;;5.85;64.73
36630;BME280;36256;42.154;23.002;2023-02-12T14:14:45;98281.59;;;5.75;65.41
36630;BME280;36256;42.154;23.002;2023-02-12T14:27:46;98300.69;;;5.38;67.10
36630;BME280;36256;42.154;23.002;2023-02-12T14:32:56;98334.88;;;5.42;66.95
36630;BME280;36256;42.154;23.002;2023-02-12T14:40:37;98342.81;;;5.33;68.21
36630;BME280;36256;42.154;23.002;2023-02-12T14:45:49;98357.53;;;5.30;68.31
36630;BME280;36256;42.154;23.002;2023-02-12T14:48:49;98360.31;;;5.30;68.30
36630;BME280;36256;42.154;23.002;2023-02-12T14:52:12;98357.91;;;5.21;68.66
36630;BME280;36256;42.154;23.002;2023-02-12T14:54:51;98370.59;;;5.19;68.64
36630;BME280;36256;42.154;23.002;2023-02-12T14:57:25;98373.00;;;5.24;68.35
36630;BME280;36256;42.154;23.002;2023-02-12T15:00:01;98373.03;;;5.27;68.39
36630;BME280;36256;42.154;23.002;2023-02-12T15:02:33;98374.59;;;5.25;68.52
36630;BME280;36256;42.154;23.002;2023-02-12T15:05:05;98378.19;;;5.29;68.17
36630;BME280;36256;42.154;23.002;2023-02-12T15:07:51;98391.69;;;5.23;68.53
36630;BME280;36256;42.154;23.002;2023-02-12T15:10:31;98400.72;;;5.03;69.86
36630;BME280;36256;42.154;23.002;2023-02-12T15:15:56;98399.91;;;4.95;68.91
36630;BME280;36256;42.154;23.002;2023-02-12T15:18:29;98404.72;;;5.02;69.41
36630;BME280;36256;42.154;23.002;2023-02-12T15:21:12;98414.28;;;5.04;69.30
36630;BME280;36256;42.154;23.002;2023-02-12T15:23:43;98428.53;;;4.96;69.79
36630;BME280;36256;42.154;23.002;2023-02-12T15:26:18;98412.56;;;4.78;70.00
36630;BME280;36256;42.154;23.002;2023-02-12T15:28:47;98436.06;;;4.92;70.05
36630;BME280;36256;42.154;23.002;2023-02-12T15:31:18;98442.00;;;4.87;70.36
36630;BME280;36256;42.154;23.002;2023-02-12T15:33:48;98445.13;;;4.78;70.69
36630;BME280;36256;42.154;23.002;2023-02-12T15:36:17;98464.97;;;4.76;70.90
36630;BME280;36256;42.154;23.002;2023-02-12T15:39:05;98452.22;;;4.68;71.04
36630;BME280;36256;42.154;23.002;2023-02-12T15:41:37;98467.28;;;4.67;70.87
36630;BME280;36256;42.154;23.002;2023-02-12T15:44:31;98473.66;;;4.71;70.89
36630;BME280;36256;42.154;23.002;2023-02-12T15:47:08;98474.41;;;4.61;71.50
36630;BME280;36256;42.154;23.002;2023-02-12T15:49:38;98478.41;;;4.64;71.95
36630;BME280;36256;42.154;23.002;2023-02-12T15:52:16;98482.75;;;4.65;71.75